Billings, MT

9:40 PM MDT on August 30, 2014 (GMT -0600)
Downtown Billings | Change Station
CLOSE
Current Station
Personal Weather Station
Location: Billings, MT
Elevation: 3127 ft
Nearby Weather Stations

Elev 3127 ft 45.78 °N, 108.50 °W | Updated 10 minutes ago

Scattered Clouds
Scattered Clouds
62.7 °F
Feels Like 62.7 °F
N
1.8
Wind Variable Wind from WSW
Gusts 5.1 mph

Today
High -- | Low -- °F
--% Chance of Precip.
Yesterday
High -- | Low -- °F
Precip. -- in
6:32 AM 7:55 PM
Waxing Crescent, 27% visible
Pressure 29.82 in
Visibility 10.0 miles
Clouds Few 8000 ft
Few 11000 ft
Scattered Clouds 20000 ft
Dew Point 52 °F
Humidity 68%
Rainfall -999.00 in
Snow Depth Not available.
UV 0 out of 12
Pollen 7.70 out of 12
Air Quality Not available.
Flu Activity Not available.
METAR KBIL 310253Z 25008KT 10SM FEW080 FEW110 SCT200 16/11 A2982

More Conditions Fewer Conditions

Pressure 29.82 in
Visibility 10.0 miles
Clouds Few 8000 ft
Few 11000 ft
Scattered Clouds 20000 ft
Dew Point 52 °F
Humidity 68%
Rainfall -999.00 in
Snow Depth Not available.
UV 0 out of 12
Pollen 7.70 out of 12
Air Quality Not available.
Flu Activity Not available.
METAR KBIL 310253Z 25008KT 10SM FEW080 FEW110 SCT200 16/11 A2982

More Conditions Fewer Conditions

10-Day Weather Forecast

Almanac

Astronomy

Aug. 30, 2014 Rise Set
Actual Time 6:32 AM MDT 7:55 PM MDT
Civil Twilight 6:01 AM MDT 8:26 PM MDT
Nautical Twilight 5:24 AM MDT 9:03 PM MDT
Astronomical Twilight 4:44 AM MDT 9:43 PM MDT
Moon 11:40 AM MDT (8/30) 10:14 PM MDT (8/30)
Length of Visible Light 14h 24m
Length of Day
13h 22m
Tomorrow will be 3m 6s shorter.
Waxing Crescent, 27% of the Moon is Illuminated
Today
Waxing Crescent
Sep 2
First Quarter
Sep 8
Full
Sep 15
Last Quarter
Sep 24
New

Today's Extremes

State Highs State Lows

Community

WunderPhotos

Upload Photos

1,748,773 photos uploaded!

Nearby

Snow Depth

Station Depth Elevation
Cole Creek 0 in 7850 ft
Placer Basin 0 in 8830 ft
Crystal Lake 0 in 6050 ft
White Mill 2 in 8700 ft
Fisher Creek 0 in 9100 ft

Earthquake Activity

City Distance Mag. Time & Date
No recent earthquake activity has been reported nearby.
Minimum magnitude displayed is 2.5.

Coastal Water Temperatures

Place Temperature
No Stations Reporting

Nearby Weather Stations